Gascoyne Junction Airport


Codes: YGSC/GSC
Name: Gascoyne Junction Airport
City: Gascoyne Junction
Country: Australia
Elevation: 499 ft.

Photos at Gascoyne Junction Airport


   Photos courtesy of SpottingLog. You can add your own sightings and photos by signing up for a free trial today.



No photos found.

Weather at Gascoyne Junction Airport


Time (UTC)DescriptionTempratureWindCloud coverageVisibilityPressureHumidity
13-Jun-2024 03:00Few Clouds19°C11 mph, SE21%10000m1020hPa65%
13-Jun-2024 06:00Few Clouds22°C7 mph, SE12%10000m1017hPa54%
13-Jun-2024 09:00Scattered Clouds24°C7 mph, SE50%10000m1016hPa45%
13-Jun-2024 12:00Broken Clouds22°C9 mph, SE54%10000m1017hPa50%
13-Jun-2024 15:00Broken Clouds21°C11 mph, SE80%10000m1017hPa51%
13-Jun-2024 18:00Overcast Clouds19°C9 mph, SE89%10000m1016hPa55%
13-Jun-2024 21:00Overcast Clouds19°C7 mph, SE98%10000m1015hPa56%
14-Jun-2024 00:00Overcast Clouds20°C2 mph, SE98%10000m1016hPa62%
14-Jun-2024 03:00Light Rain23°C9 mph, W100%10000m1016hPa55%
14-Jun-2024 06:00Overcast Clouds24°C7 mph, SW100%10000m1013hPa49%
14-Jun-2024 09:00Overcast Clouds24°C11 mph, SW96%10000m1014hPa44%
14-Jun-2024 12:00Overcast Clouds22°C7 mph, S98%10000m1015hPa55%
14-Jun-2024 15:00Overcast Clouds21°C13 mph, S100%10000m1015hPa58%
14-Jun-2024 18:00Overcast Clouds21°C9 mph, SE100%10000m1014hPa60%
14-Jun-2024 21:00Overcast Clouds21°C7 mph, E97%10000m1013hPa55%
15-Jun-2024 00:00Overcast Clouds21°C7 mph, NE95%10000m1015hPa53%
15-Jun-2024 03:00Overcast Clouds22°C7 mph, NE100%10000m1014hPa50%
15-Jun-2024 06:00Overcast Clouds24°C7 mph, NW99%10000m1013hPa42%
15-Jun-2024 09:00Overcast Clouds23°C4 mph, SW100%10000m1014hPa50%
15-Jun-2024 12:00Overcast Clouds22°C4 mph, E100%10000m1014hPa50%
15-Jun-2024 15:00Overcast Clouds22°C4 mph, SW100%10000m1015hPa56%
15-Jun-2024 18:00Overcast Clouds21°C2 mph, E92%10000m1014hPa64%
15-Jun-2024 21:00Overcast Clouds22°C4 mph, NE99%10000m1014hPa55%
16-Jun-2024 00:00Light Rain22°C7 mph, N100%10000m1015hPa64%
16-Jun-2024 03:00Light Rain23°C7 mph, N100%10000m1016hPa65%
16-Jun-2024 06:00Light Rain23°C7 mph, NW97%10000m1014hPa62%
16-Jun-2024 09:00Light Rain21°C9 mph, SW96%10000m1015hPa82%
16-Jun-2024 12:00Light Rain20°C9 mph, W98%10000m1017hPa86%
16-Jun-2024 15:00Light Rain21°C7 mph, NW100%10000m1017hPa86%
16-Jun-2024 18:00Light Rain20°C7 mph, W100%9338m1016hPa90%
16-Jun-2024 21:00Light Rain20°C13 mph, N100%10000m1017hPa71%
17-Jun-2024 00:00Light Rain18°C7 mph, NW100%10000m1018hPa87%
17-Jun-2024 03:00Moderate Rain19°C7 mph, NW100%10000m1019hPa89%
17-Jun-2024 06:00Light Rain19°C4 mph, NW100%10000m1017hPa83%
17-Jun-2024 09:00Light Rain20°C4 mph, N100%10000m1018hPa78%
17-Jun-2024 12:00Overcast Clouds19°C2 mph, SW86%10000m1020hPa83%
17-Jun-2024 15:00Broken Clouds19°C0 mph, SW56%10000m1020hPa83%
17-Jun-2024 18:00Scattered Clouds18°C4 mph, S29%10000m1019hPa86%
17-Jun-2024 21:00Clear Sky17°C9 mph, SE1%10000m1019hPa81%
18-Jun-2024 00:00Clear Sky17°C9 mph, SE0%10000m1021hPa78%